Time;durP1;ratioP1;P1;durP2;ratioP2;P2;SDS_P1;SDS_P2;PMS_P1;PMS_P2;Temp;Humidity;BMP_temperature;BMP_pressure;BME280_temperature;BME280_humidity;BME280_pressure;Samples;Min_cycle;Max_cycle;Signal;HPM_P1;HPM_P2
2022/05/15 00:02:29;;;;;;;6.30;1.95;;;;;;;10.63;49.44;98503.84;5050660;28;20074;-64
2022/05/15 00:04:55;;;;;;;11.30;2.33;;;;;;;10.75;49.34;98507.94;5051988;28;20029;-64
2022/05/15 00:07:21;;;;;;;7.47;2.30;;;;;;;10.80;49.07;98514.66;5038900;28;20157;-63
2022/05/15 00:09:46;;;;;;;5.55;2.17;;;;;;;10.83;49.13;98508.97;4999351;28;20041;-63
2022/05/15 00:12:13;;;;;;;7.40;2.15;;;;;;;10.84;48.65;98506.16;5015565;28;20531;-66
2022/05/15 00:14:39;;;;;;;6.32;2.20;;;;;;;10.91;48.68;98509.03;5046298;28;20111;-65
2022/05/15 00:17:04;;;;;;;4.88;1.88;;;;;;;10.91;48.61;98496.47;5053294;28;20112;-66
2022/05/15 00:19:30;;;;;;;6.80;2.60;;;;;;;11.00;48.17;98504.56;5035551;28;20112;-65
2022/05/15 00:21:55;;;;;;;6.40;2.47;;;;;;;11.01;48.07;98500.91;5035107;28;20029;-65
2022/05/15 00:24:21;;;;;;;4.78;2.40;;;;;;;11.05;48.22;98507.59;5034487;28;20036;-65
2022/05/15 00:26:47;;;;;;;5.75;2.03;;;;;;;11.05;48.23;98497.72;5032996;28;20037;-65
2022/05/15 00:29:13;;;;;;;6.57;2.13;;;;;;;10.90;48.33;98484.09;5033326;28;20090;-66
2022/05/15 00:31:39;;;;;;;5.88;2.13;;;;;;;11.01;48.41;98500.91;5032689;28;20132;-67
2022/05/15 00:34:04;;;;;;;6.72;2.20;;;;;;;11.00;48.25;98507.25;5032804;28;20117;-66
2022/05/15 00:36:30;;;;;;;4.43;1.90;;;;;;;10.97;48.61;98504.88;5015287;28;20029;-64
2022/05/15 00:38:55;;;;;;;7.57;2.35;;;;;;;10.93;48.70;98496.34;5020161;28;20034;-66
2022/05/15 00:41:21;;;;;;;7.72;2.40;;;;;;;10.91;48.65;98492.97;5032616;28;20040;-67
2022/05/15 00:43:51;;;;;;;5.03;2.30;;;;;;;10.88;48.76;98502.16;5017868;28;20033;-65
2022/05/15 00:46:19;;;;;;;5.45;2.38;;;;;;;10.87;49.02;98505.84;5043290;28;20076;-67
2022/05/15 00:48:45;;;;;;;7.13;2.17;;;;;;;10.78;49.12;98504.13;5052582;28;20036;-66
2022/05/15 00:51:17;;;;;;;4.47;2.13;;;;;;;10.62;48.89;98472.75;5034836;28;20044;-65
2022/05/15 00:53:44;;;;;;;9.15;2.60;;;;;;;10.71;49.14;98500.38;5034639;28;20039;-67
2022/05/15 00:56:12;;;;;;;8.57;2.35;;;;;;;10.70;49.17;98504.91;5027483;28;20017;-66
2022/05/15 00:58:40;;;;;;;6.68;2.47;;;;;;;10.65;49.51;98493.84;4998583;28;20039;-65
2022/05/15 01:01:06;;;;;;;5.57;2.10;;;;;;;10.56;49.67;98492.94;5023972;28;20033;-66
2022/05/15 01:03:32;;;;;;;6.70;2.10;;;;;;;10.53;49.68;98487.03;5034469;28;20378;-66
2022/05/15 01:05:59;;;;;;;7.88;2.40;;;;;;;10.49;49.72;98499.91;5052097;28;20430;-67
2022/05/15 01:08:27;;;;;;;8.95;2.35;;;;;;;10.43;50.26;98498.69;5030366;28;20487;-66
2022/05/15 01:10:57;;;;;;;6.78;2.05;;;;;;;10.34;50.43;98486.19;4997929;28;20125;-66
2022/05/15 01:13:24;;;;;;;5.00;2.42;;;;;;;10.29;50.40;98492.03;5030942;28;20436;-67
2022/05/15 01:15:49;;;;;;;5.45;2.20;;;;;;;10.27;50.41;98487.81;5014387;28;20029;-65
2022/05/15 01:18:27;;;;;;;8.80;2.28;;;;;;;10.28;50.66;98481.47;5032151;28;20041;-65
2022/05/15 01:20:55;;;;;;;3.97;1.98;;;;;;;10.22;50.98;98490.94;5013666;28;20091;-66
2022/05/15 01:23:20;;;;;;;4.80;2.08;;;;;;;10.18;51.40;98484.25;5014284;28;20029;-65
2022/05/15 01:25:46;;;;;;;7.80;2.05;;;;;;;10.11;51.15;98478.66;5031708;28;20052;-65
2022/05/15 01:28:18;;;;;;;9.10;1.98;;;;;;;10.17;50.97;98482.56;5013858;28;20026;-65
2022/05/15 01:30:47;;;;;;;3.25;1.67;;;;;;;10.18;51.28;98493.13;5031507;28;20041;-66
2022/05/15 01:33:13;;;;;;;5.07;2.40;;;;;;;10.10;51.42;98479.66;5013984;28;20037;-66
2022/05/15 01:35:38;;;;;;;7.78;2.17;;;;;;;10.20;51.18;98485.78;5013682;28;20492;-66
2022/05/15 01:38:05;;;;;;;8.38;2.13;;;;;;;10.08;50.95;98468.28;5016848;28;20090;-65
2022/05/15 01:40:31;;;;;;;11.68;2.00;;;;;;;10.34;51.09;98495.09;5017248;28;20041;-65
2022/05/15 01:42:58;;;;;;;7.43;2.15;;;;;;;10.38;51.29;98489.41;5051343;28;20108;-68
2022/05/15 01:45:24;;;;;;;3.90;2.10;;;;;;;10.43;50.90;98492.50;5020131;28;20030;-67
2022/05/15 01:47:49;;;;;;;6.60;2.13;;;;;;;10.31;50.93;98465.13;5031953;28;20036;-66
2022/05/15 01:50:15;;;;;;;4.88;2.05;;;;;;;10.54;50.51;98488.72;5014095;28;20030;-66
2022/05/15 01:52:41;;;;;;;5.88;2.33;;;;;;;10.46;50.46;98471.63;5015352;28;20477;-66
2022/05/15 01:55:08;;;;;;;7.40;2.22;;;;;;;10.68;50.21;98493.50;5013819;28;20044;-68
2022/05/15 01:57:33;;;;;;;7.63;2.05;;;;;;;10.75;50.34;98497.22;5041275;28;20033;-65
2022/05/15 01:59:59;;;;;;;8.23;2.03;;;;;;;10.77;50.12;98497.91;5031373;28;20385;-66
2022/05/15 02:02:24;;;;;;;5.57;2.50;;;;;;;10.80;50.16;98490.56;5031388;28;20135;-66
2022/05/15 02:04:50;;;;;;;4.75;1.92;;;;;;;10.89;50.09;98494.97;5013618;28;20386;-67
2022/05/15 02:07:15;;;;;;;5.93;2.08;;;;;;;10.95;49.48;98486.31;5031254;28;20072;-67
2022/05/15 02:09:41;;;;;;;6.28;2.40;;;;;;;11.01;49.80;98491.00;5038873;28;20048;-66
2022/05/15 02:12:07;;;;;;;7.00;2.00;;;;;;;11.10;49.35;98483.84;5017786;28;20030;-67
2022/05/15 02:14:33;;;;;;;8.00;2.08;;;;;;;11.20;49.11;98489.09;5031452;28;20029;-67
2022/05/15 02:16:59;;;;;;;7.10;2.20;;;;;;;11.28;49.19;98494.47;5025256;28;20036;-67
2022/05/15 02:19:24;;;;;;;8.10;2.13;;;;;;;11.36;48.94;98482.13;5032763;28;20326;-66
2022/05/15 02:21:50;;;;;;;7.85;2.03;;;;;;;11.49;48.61;98493.22;5050979;28;20385;-67
2022/05/15 02:24:15;;;;;;;4.45;1.77;;;;;;;11.54;48.41;98490.88;5033198;28;20036;-68
2022/05/15 02:26:41;;;;;;;4.90;2.17;;;;;;;11.61;48.29;98491.06;5028457;28;20030;-67
2022/05/15 02:29:08;;;;;;;7.72;2.10;;;;;;;11.65;48.47;98487.06;5013375;28;20040;-68
2022/05/15 02:31:33;;;;;;;6.82;1.80;;;;;;;11.65;48.32;98492.41;5030962;28;20061;-66
2022/05/15 02:34:00;;;;;;;5.97;2.17;;;;;;;11.67;47.90;98484.22;5014739;28;20037;-66
2022/05/15 02:36:27;;;;;;;5.13;1.88;;;;;;;11.69;48.01;98491.06;5030600;28;20037;-68
2022/05/15 02:38:52;;;;;;;4.47;1.90;;;;;;;11.73;48.05;98483.56;5029625;28;20033;-68
2022/05/15 02:41:18;;;;;;;4.90;1.88;;;;;;;11.85;48.05;98498.34;5012977;28;20125;-67
2022/05/15 02:43:43;;;;;;;5.00;2.03;;;;;;;11.92;47.56;98485.94;5029655;28;20442;-66
2022/05/15 02:46:09;;;;;;;10.02;2.20;;;;;;;12.00;47.48;98495.84;5030672;28;20405;-72
2022/05/15 02:51:19;;;;;;;6.22;2.25;;;;;;;12.18;47.18;98500.25;5030762;28;20030;-67
2022/05/15 02:53:46;;;;;;;5.85;1.75;;;;;;;12.28;46.74;98494.69;5017771;28;20477;-68
2022/05/15 02:56:18;;;;;;;8.88;2.00;;;;;;;12.44;46.87;98491.19;5019321;28;20098;-68
2022/05/15 02:58:44;;;;;;;6.47;2.40;;;;;;;12.39;46.21;98478.28;5041944;28;20033;-70
2022/05/15 03:01:09;;;;;;;3.95;2.00;;;;;;;12.57;46.27;98490.69;5039736;28;20060;-69
2022/05/15 03:03:35;;;;;;;6.13;2.33;;;;;;;12.69;45.54;98483.94;5057409;28;20068;-66
2022/05/15 03:06:00;;;;;;;4.30;1.92;;;;;;;12.81;45.62;98494.34;5039030;28;20029;-68
2022/05/15 03:08:26;;;;;;;9.90;2.05;;;;;;;12.97;44.88;98486.22;5035108;28;20477;-68
2022/05/15 03:10:52;;;;;;;5.68;1.92;;;;;;;13.09;44.70;98484.00;5036707;28;20032;-70
2022/05/15 03:13:17;;;;;;;6.53;1.73;;;;;;;13.25;44.55;98485.78;5018744;28;20105;-68
2022/05/15 03:15:43;;;;;;;7.25;1.83;;;;;;;13.45;44.04;98493.47;5019050;28;20038;-68
2022/05/15 03:18:08;;;;;;;3.22;1.80;;;;;;;13.48;43.69;98460.84;5037485;28;20029;-70
2022/05/15 03:20:34;;;;;;;4.85;1.88;;;;;;;13.88;43.17;98488.50;5037354;28;20060;-69
2022/05/15 03:23:00;;;;;;;6.57;2.00;;;;;;;14.16;42.62;98492.53;5020300;28;20032;-67
2022/05/15 03:25:27;;;;;;;9.80;2.20;;;;;;;14.57;41.44;98491.34;5038927;28;20032;-68
2022/05/15 03:27:54;;;;;;;7.07;2.28;;;;;;;15.13;40.63;98487.41;5056789;28;20436;-68
2022/05/15 03:30:20;;;;;;;7.45;1.85;;;;;;;15.64;39.14;98484.75;5034905;28;20033;-65
2022/05/15 03:32:46;;;;;;;5.93;1.73;;;;;;;16.21;38.28;98487.66;5036886;28;20037;-64
2022/05/15 03:35:14;;;;;;;3.95;1.60;;;;;;;16.69;36.93;98478.06;5055674;28;20041;-66
2022/05/15 03:37:41;;;;;;;7.13;1.70;;;;;;;17.17;36.01;98495.47;5039189;28;20028;-64
2022/05/15 03:40:10;;;;;;;3.38;1.50;;;;;;;17.56;35.37;98491.25;5022118;28;20054;-66
2022/05/15 03:42:37;;;;;;;5.30;1.90;;;;;;;18.01;34.42;98487.22;5038650;28;20053;-66
2022/05/15 03:45:04;;;;;;;5.65;1.85;;;;;;;18.40;33.65;98492.91;5038623;28;20543;-66
2022/05/15 03:47:29;;;;;;;5.38;1.52;;;;;;;18.73;33.00;98490.22;5056554;28;20045;-66
2022/05/15 03:50:01;;;;;;;3.38;1.50;;;;;;;19.17;32.93;98497.88;5037200;28;20436;-65
2022/05/15 03:52:26;;;;;;;6.57;1.95;;;;;;;19.31;32.12;98483.25;5054811;28;20040;-63
2022/05/15 03:54:52;;;;;;;3.88;1.45;;;;;;;19.72;31.11;98486.63;5038497;28;20113;-65
2022/05/15 03:57:19;;;;;;;3.25;1.50;;;;;;;20.35;30.10;98490.41;5021972;28;20055;-65
2022/05/15 03:59:44;;;;;;;5.45;1.58;;;;;;;21.06;29.17;98484.81;5053308;28;20126;-68
2022/05/15 04:02:10;;;;;;;3.80;1.63;;;;;;;21.86;27.70;98484.91;5019212;28;20478;-66
2022/05/15 04:04:36;;;;;;;4.15;1.55;;;;;;;22.71;26.36;98484.91;5000745;28;20029;-63
2022/05/15 04:07:02;;;;;;;6.28;2.05;;;;;;;23.65;25.47;98487.78;5039198;28;20755;-61
2022/05/15 04:09:30;;;;;;;5.22;1.73;;;;;;;24.58;23.93;98484.00;5053196;28;20036;-63
2022/05/15 04:11:56;;;;;;;3.83;1.45;;;;;;;25.40;22.92;98471.75;5053289;28;20040;-63
2022/05/15 04:14:22;;;;;;;5.40;1.88;;;;;;;26.33;21.90;98478.28;5051518;28;20041;-64
2022/05/15 04:16:47;;;;;;;5.63;1.52;;;;;;;27.19;20.53;98479.19;5035468;28;20048;-64
2022/05/15 04:19:13;;;;;;;4.82;1.90;;;;;;;28.02;19.51;98484.19;5053383;28;20025;-63
2022/05/15 04:21:40;;;;;;;3.60;1.63;;;;;;;28.82;18.50;98462.78;5035405;28;20029;-64
2022/05/15 04:24:17;;;;;;;5.75;1.70;;;;;;;30.22;17.88;98483.19;5035383;28;20033;-65
2022/05/15 04:26:44;;;;;;;6.10;1.60;;;;;;;30.81;16.73;98481.59;5033702;28;20052;-64
2022/05/15 04:29:11;;;;;;;4.47;1.65;;;;;;;30.41;16.86;98479.72;5015675;28;20059;-63
2022/05/15 04:31:36;;;;;;;3.42;1.55;;;;;;;28.96;17.76;98466.63;5032687;28;20049;-64
2022/05/15 04:34:03;;;;;;;4.15;1.33;;;;;;;27.87;19.71;98485.81;5032814;28;20064;-63
2022/05/15 04:36:29;;;;;;;2.80;1.48;;;;;;;27.31;19.90;98470.75;5036199;28;20021;-63
2022/05/15 04:38:55;;;;;;;4.57;1.20;;;;;;;26.93;20.30;98480.97;5053048;28;20029;-65
2022/05/15 04:41:21;;;;;;;2.80;1.27;;;;;;;26.20;21.30;98477.63;5034700;28;20025;-64
2022/05/15 04:43:47;;;;;;;2.97;1.20;;;;;;;25.55;22.20;98482.94;5051858;28;20037;-64
2022/05/15 04:46:13;;;;;;;5.32;1.50;;;;;;;25.15;22.88;98479.38;5052608;28;20542;-63
2022/05/15 04:48:38;;;;;;;4.85;1.60;;;;;;;24.49;23.15;98469.91;5052736;28;20028;-63
2022/05/15 04:51:04;;;;;;;2.30;1.33;;;;;;;24.48;23.61;98479.19;5043753;28;20033;-63
2022/05/15 04:53:33;;;;;;;4.13;1.42;;;;;;;26.38;21.22;98475.59;5032050;28;20397;-63
2022/05/15 04:56:00;;;;;;;4.65;1.30;;;;;;;28.65;18.72;98481.22;5014977;28;20041;-64
2022/05/15 04:58:25;;;;;;;2.67;1.30;;;;;;;30.16;16.88;98473.31;5032545;28;20453;-64
2022/05/15 05:00:51;;;;;;;6.15;1.30;;;;;;;31.54;15.67;98470.63;5033645;28;20035;-64
2022/05/15 05:03:17;;;;;;;3.60;1.40;;;;;;;32.76;14.62;98466.28;5014736;28;20082;-66
2022/05/15 05:05:43;;;;;;;4.28;1.15;;;;;;;33.80;13.71;98472.63;5032465;28;20037;-65
2022/05/15 05:08:12;;;;;;;3.25;1.60;;;;;;;34.85;13.15;98469.84;5046792;28;20334;-64
2022/05/15 05:10:39;;;;;;;5.00;1.23;;;;;;;35.49;12.04;98467.81;5051396;28;20163;-59
2022/05/15 05:13:04;;;;;;;2.97;1.25;;;;;;;35.82;11.90;98464.63;5051426;28;20032;-59
2022/05/15 05:15:30;;;;;;;3.60;1.23;;;;;;;36.48;11.72;98460.03;5051150;28;20024;-57
2022/05/15 05:17:57;;;;;;;4.60;1.48;;;;;;;37.23;11.25;98469.19;5052096;28;20112;-52
2022/05/15 05:20:23;;;;;;;2.83;1.08;;;;;;;38.03;10.09;98464.78;5044839;28;20022;-60
2022/05/15 05:22:49;;;;;;;3.17;1.20;;;;;;;39.10;9.35;98465.41;5031850;28;20083;-58
2022/05/15 05:25:15;;;;;;;2.08;1.10;;;;;;;39.97;9.16;98466.16;5032414;28;20385;-53
2022/05/15 05:27:41;;;;;;;3.30;1.20;;;;;;;40.24;8.96;98472.13;5033051;28;20112;-55
2022/05/15 05:30:10;;;;;;;4.85;1.48;;;;;;;40.62;8.83;98481.22;5031805;28;20036;-61
2022/05/15 05:32:36;;;;;;;4.53;1.25;;;;;;;39.57;9.27;98478.94;5024368;28;20033;-59
2022/05/15 05:35:03;;;;;;;3.40;1.35;;;;;;;37.14;10.54;98480.41;5031448;28;20111;-59
2022/05/15 05:37:28;;;;;;;2.85;1.20;;;;;;;35.31;12.07;98472.50;5030563;28;20029;-58
2022/05/15 05:39:54;;;;;;;2.40;1.35;;;;;;;34.02;13.06;98476.59;5032013;28;20025;-59
2022/05/15 05:42:19;;;;;;;5.82;1.33;;;;;;;32.74;14.15;98473.28;5031672;28;20117;-60
2022/05/15 05:44:45;;;;;;;2.78;1.30;;;;;;;32.30;14.79;98454.03;5029927;28;20108;-57
2022/05/15 05:47:10;;;;;;;3.30;1.38;;;;;;;33.45;13.40;98472.25;5031763;28;20076;-60
2022/05/15 05:49:36;;;;;;;2.88;1.30;;;;;;;35.13;12.34;98441.03;5031243;28;20033;-58
2022/05/15 05:52:03;;;;;;;4.38;1.38;;;;;;;37.59;10.67;98471.47;5017108;28;20553;-59
2022/05/15 05:54:29;;;;;;;3.15;1.30;;;;;;;39.50;8.96;98473.09;5011813;28;20065;-59
2022/05/15 05:56:54;;;;;;;3.05;1.73;;;;;;;40.78;8.51;98469.25;5011476;28;20065;-61
2022/05/15 05:59:20;;;;;;;1.73;1.38;;;;;;;41.99;7.58;98468.94;5012298;28;20117;-63
2022/05/15 06:01:46;;;;;;;5.00;1.50;;;;;;;42.18;7.40;98471.75;5018868;28;20091;-59
2022/05/15 06:07:18;;;;;;;4.18;1.38;;;;;;;40.16;8.83;98475.91;4982266;28;20035;-60
2022/05/15 06:09:46;;;;;;;2.55;1.50;;;;;;;38.77;9.46;98476.25;4960404;28;20498;-60
2022/05/15 06:12:13;;;;;;;2.88;1.73;;;;;;;38.29;9.75;98477.72;4979283;28;20046;-59
2022/05/15 06:14:39;;;;;;;2.08;1.25;;;;;;;38.50;9.64;98471.28;4979492;28;20094;-59
2022/05/15 06:17:05;;;;;;;6.88;1.80;;;;;;;39.44;8.89;98471.72;4976606;28;20415;-59
2022/05/15 06:19:31;;;;;;;4.55;1.70;;;;;;;40.73;8.33;98470.31;4978865;28;20129;-60
2022/05/15 06:21:57;;;;;;;4.13;1.50;;;;;;;41.87;7.66;98469.88;4979092;28;20117;-60
2022/05/15 06:24:23;;;;;;;4.43;1.70;;;;;;;42.88;6.87;98454.22;4978690;28;20125;-59
2022/05/15 06:26:48;;;;;;;2.50;1.40;;;;;;;44.00;5.93;98469.22;4978831;28;20039;-58
2022/05/15 06:29:14;;;;;;;3.72;1.40;;;;;;;44.19;5.79;98468.25;4977820;28;20117;-60
2022/05/15 06:31:39;;;;;;;4.22;1.40;;;;;;;43.29;6.24;98474.22;4962465;28;20054;-59
2022/05/15 06:34:05;;;;;;;2.63;1.45;;;;;;;43.35;6.47;98473.91;4977703;28;20121;-56
2022/05/15 06:36:31;;;;;;;3.85;1.30;;;;;;;44.07;6.24;98477.75;4962554;28;20471;-52
2022/05/15 06:38:57;;;;;;;3.33;1.42;;;;;;;45.01;5.60;98472.38;5016153;28;20041;-55
2022/05/15 06:41:23;;;;;;;3.58;1.30;;;;;;;45.96;5.12;98473.84;5020568;28;20365;-56
2022/05/15 06:43:48;;;;;;;2.03;1.35;;;;;;;46.29;4.95;98469.97;5019435;28;20030;-55
2022/05/15 06:46:14;;;;;;;7.10;1.30;;;;;;;46.58;4.60;98453.06;5018937;28;20052;-59
2022/05/15 06:48:40;;;;;;;1.80;1.20;;;;;;;46.92;4.70;98468.91;5016514;28;20041;-58
2022/05/15 06:51:06;;;;;;;3.00;1.35;;;;;;;46.93;4.82;98467.69;5023294;28;20400;-57
2022/05/15 06:53:33;;;;;;;4.63;1.60;;;;;;;47.08;4.81;98465.66;5045971;28;20033;-58
2022/05/15 06:58:43;;;;;;;3.33;1.25;;;;;;;47.84;4.13;98451.41;5030480;28;20069;-58
2022/05/15 07:01:08;;;;;;;4.60;1.60;;;;;;;47.94;4.45;98455.41;5029279;28;20148;-59
2022/05/15 07:03:35;;;;;;;3.33;1.35;;;;;;;48.20;3.72;98452.47;5026091;28;20029;-57
2022/05/15 07:06:00;;;;;;;2.42;1.52;;;;;;;48.26;3.48;98436.66;5030363;28;20035;-60
2022/05/15 07:08:26;;;;;;;2.88;1.30;;;;;;;48.46;3.68;98436.94;5018778;28;20087;-60
2022/05/15 07:10:52;;;;;;;1.73;1.42;;;;;;;48.58;3.38;98447.00;5010098;28;20025;-60
2022/05/15 07:13:17;;;;;;;3.45;1.50;;;;;;;48.76;3.46;98434.72;5011241;28;20474;-59
2022/05/15 07:15:43;;;;;;;2.67;1.20;;;;;;;49.09;3.51;98438.09;5011065;28;20026;-56
2022/05/15 07:18:09;;;;;;;5.45;1.80;;;;;;;49.13;2.95;98424.66;5010600;28;20026;-58
2022/05/15 07:20:35;;;;;;;3.55;1.50;;;;;;;49.10;3.29;98423.47;5011128;28;20079;-60
2022/05/15 07:23:00;;;;;;;1.80;1.35;;;;;;;48.80;2.97;98407.13;5011085;28;20389;-60
2022/05/15 07:25:26;;;;;;;1.83;1.70;;;;;;;48.54;3.38;98421.47;5010750;28;20033;-58
2022/05/15 07:27:51;;;;;;;3.20;1.65;;;;;;;48.36;3.58;98413.06;5028545;28;20108;-59
2022/05/15 07:30:17;;;;;;;3.95;1.60;;;;;;;48.91;3.01;98421.22;5021330;28;20045;-64
2022/05/15 07:32:43;;;;;;;3.33;1.70;;;;;;;48.90;2.83;98420.41;5030193;28;20136;-58
2022/05/15 07:35:08;;;;;;;1.92;1.27;;;;;;;48.80;3.25;98410.75;5030435;28;20499;-60
2022/05/15 07:37:34;;;;;;;2.58;1.35;;;;;;;48.81;3.15;98411.56;5030257;28;20032;-58
2022/05/15 07:40:00;;;;;;;1.95;1.20;;;;;;;48.60;2.81;98415.38;5032922;28;20026;-59
2022/05/15 07:42:25;;;;;;;2.00;1.50;;;;;;;47.72;3.13;98414.97;5034439;28;20037;-58
2022/05/15 07:44:54;;;;;;;1.50;1.20;;;;;;;44.29;4.76;98399.06;5041415;28;20021;-58
2022/05/15 07:47:19;;;;;;;2.40;0.80;;;;;;;40.56;6.22;98409.75;5053841;28;20032;-60
2022/05/15 07:49:45;;;;;;;1.90;0.80;;;;;;;37.39;8.30;98405.25;5053942;28;20029;-57
2022/05/15 07:52:11;;;;;;;2.78;1.10;;;;;;;34.61;10.31;98397.94;5053596;28;20036;-60
2022/05/15 07:54:36;;;;;;;3.28;1.30;;;;;;;32.37;11.79;98414.91;5053477;28;20430;-51
2022/05/15 07:57:02;;;;;;;1.58;1.00;;;;;;;30.33;13.54;98400.28;5053677;28;20045;-53
2022/05/15 07:59:28;;;;;;;2.03;0.70;;;;;;;28.78;15.16;98418.41;5053216;28;20389;-55
2022/05/15 08:01:55;;;;;;;2.78;0.90;;;;;;;27.45;16.27;98418.00;5035548;28;20036;-56
2022/05/15 08:04:21;;;;;;;2.47;0.70;;;;;;;26.23;17.61;98427.72;5039622;28;20057;-59
2022/05/15 08:09:31;;;;;;;2.15;1.27;;;;;;;23.99;20.39;98433.19;5040135;28;20079;-58
2022/05/15 08:11:57;;;;;;;3.78;0.82;;;;;;;23.25;21.65;98429.34;5052769;28;20108;-56
2022/05/15 08:14:22;;;;;;;4.30;0.85;;;;;;;22.70;22.87;98425.97;5053413;28;20110;-59
2022/05/15 08:16:48;;;;;;;3.13;1.10;;;;;;;22.22;23.33;98412.28;5052516;28;20397;-59
2022/05/15 08:25:02;;;;;;;3.20;1.13;;;;;;;22.29;23.84;98417.59;4971945;28;20046;-56
2022/05/15 08:27:28;;;;;;;5.88;1.20;;;;;;;22.03;24.31;98418.88;5008510;28;20041;-59
2022/05/15 08:29:54;;;;;;;4.20;1.10;;;;;;;21.67;25.29;98412.47;5033309;28;20033;-57
2022/05/15 08:32:19;;;;;;;4.63;1.10;;;;;;;21.21;25.92;98423.72;5032962;28;20131;-58
2022/05/15 08:34:45;;;;;;;4.28;1.08;;;;;;;20.69;26.76;98416.72;5024267;28;20044;-59
2022/05/15 08:37:11;;;;;;;2.15;1.10;;;;;;;20.25;27.14;98424.03;5033281;28;20040;-56
2022/05/15 08:39:36;;;;;;;1.85;0.80;;;;;;;19.76;27.48;98421.84;5032963;28;20037;-55
2022/05/15 08:42:05;;;;;;;2.25;0.90;;;;;;;19.47;28.14;98432.22;5049406;28;20040;-54
2022/05/15 08:44:34;;;;;;;3.85;1.38;;;;;;;19.22;28.77;98420.25;5052459;28;20051;-53
2022/05/15 08:47:22;;;;;;;2.28;1.20;;;;;;;19.25;27.71;98423.56;5052597;28;20040;-58
2022/05/15 08:49:47;;;;;;;2.28;1.25;;;;;;;19.10;29.78;98440.94;5052741;28;20068;-57
2022/05/15 08:52:22;;;;;;;3.08;1.30;;;;;;;19.13;30.81;98445.09;5051214;28;20068;-58
2022/05/15 08:54:48;;;;;;;5.57;1.73;;;;;;;18.62;34.95;98491.66;5051511;28;20032;-57
2022/05/15 08:57:19;;;;;;;3.65;1.08;;;;;;;17.79;37.76;98488.22;5032578;28;20090;-57
2022/05/15 08:59:57;;;;;;;2.90;0.77;;;;;;;17.10;39.38;98510.78;5015209;28;20037;-58
2022/05/15 09:02:23;;;;;;;3.10;1.15;;;;;;;16.36;41.90;98521.84;5032698;28;20032;-57
2022/05/15 09:04:52;;;;;;;4.07;0.90;;;;;;;15.97;44.38;98525.84;5032318;28;20101;-60
2022/05/15 09:07:20;;;;;;;2.97;0.90;;;;;;;15.65;47.01;98520.66;5032400;28;20033;-59
2022/05/15 09:10:23;;;;;;;3.83;1.25;;;;;;;15.64;46.14;98525.19;5032328;28;20423;-57
2022/05/15 09:12:59;;;;;;;4.70;1.42;;;;;;;15.33;48.49;98498.50;4994209;28;20037;-55
2022/05/15 09:15:30;;;;;;;1.70;0.88;;;;;;;15.36;45.94;98525.06;5032824;28;20037;-57
2022/05/15 09:18:03;;;;;;;1.58;0.80;;;;;;;15.12;47.60;98520.78;5035855;28;20025;-59
2022/05/15 09:20:28;;;;;;;3.45;1.00;;;;;;;15.17;50.27;98532.69;5016462;28;20041;-58
2022/05/15 09:23:01;;;;;;;5.05;0.90;;;;;;;15.10;48.58;98528.22;5041104;28;20116;-58
2022/05/15 09:25:35;;;;;;;1.85;0.80;;;;;;;14.87;47.28;98532.69;5035385;28;20085;-57
2022/05/15 09:28:07;;;;;;;1.17;0.70;;;;;;;14.67;44.37;98523.41;5042801;28;20393;-59
2022/05/15 09:30:45;;;;;;;1.98;0.85;;;;;;;14.49;45.73;98495.78;5043037;28;20061;-60
2022/05/15 09:33:44;;;;;;;0.40;0.38;;;;;;;14.66;42.71;98487.53;5038616;28;20120;-55
2022/05/15 09:36:34;;;;;;;2.15;0.65;;;;;;;14.77;44.15;98497.91;5038460;28;20393;-55
2022/05/15 09:39:18;;;;;;;0.80;0.60;;;;;;;15.14;44.49;98489.09;5040525;28;20034;-59
2022/05/15 09:44:41;;;;;;;0.80;0.70;;;;;;;16.61;42.59;98480.91;5036387;28;20037;-54
2022/05/15 09:47:10;;;;;;;3.45;0.60;;;;;;;17.41;38.80;98477.88;5039900;28;20060;-58
2022/05/15 09:49:35;;;;;;;1.63;0.82;;;;;;;18.05;37.63;98477.66;5037730;28;20021;-56
2022/05/15 09:52:27;;;;;;;3.78;0.80;;;;;;;18.84;36.25;98466.22;5038844;28;20029;-60
2022/05/15 09:55:07;;;;;;;1.80;0.80;;;;;;;19.04;34.90;98445.31;5024022;28;20373;-57
2022/05/15 09:57:32;;;;;;;2.47;0.80;;;;;;;19.18;34.36;98467.00;5036271;28;20099;-56
2022/05/15 09:59:59;;;;;;;2.55;0.73;;;;;;;19.30;34.80;98457.16;5051213;28;20393;-57
2022/05/15 10:02:50;;;;;;;3.50;0.85;;;;;;;19.61;34.19;98462.84;5047140;28;20128;-55
2022/05/15 10:05:16;;;;;;;1.27;0.85;;;;;;;19.54;33.03;98462.91;5046889;28;20374;-54
2022/05/15 10:07:49;;;;;;;2.13;0.80;;;;;;;19.71;33.30;98465.09;5035438;28;20045;-57
2022/05/15 10:10:17;;;;;;;3.53;0.80;;;;;;;19.78;30.75;98463.19;5032762;28;20786;-59
2022/05/15 10:12:45;;;;;;;1.25;0.90;;;;;;;19.29;30.63;98428.38;5021448;28;20048;-59
2022/05/15 10:15:11;;;;;;;2.00;0.80;;;;;;;19.24;31.81;98458.00;5049472;28;20029;-62
2022/05/15 10:17:49;;;;;;;2.47;0.80;;;;;;;19.25;31.59;98456.94;5044430;28;20425;-61
2022/05/15 10:20:19;;;;;;;2.05;0.85;;;;;;;19.10;31.42;98459.91;5041366;28;20033;-64
2022/05/15 10:23:16;;;;;;;2.45;1.10;;;;;;;19.06;31.37;98464.09;5032619;28;20044;-64
2022/05/15 10:25:45;;;;;;;1.95;0.77;;;;;;;19.11;32.75;98471.63;5051028;28;20040;-61
2022/05/15 10:28:19;;;;;;;4.50;0.70;;;;;;;19.44;31.72;98454.38;5050936;28;20029;-61
2022/05/15 10:31:07;;;;;;;3.38;0.70;;;;;;;19.57;31.32;98464.34;5032695;28;20140;-61
2022/05/15 10:33:37;;;;;;;1.13;0.85;;;;;;;19.48;32.55;98456.44;5051208;28;20481;-60
2022/05/15 10:36:05;;;;;;;1.02;0.75;;;;;;;19.54;32.26;98457.47;5039395;28;20507;-58
2022/05/15 10:38:54;;;;;;;1.60;0.80;;;;;;;19.69;31.32;98464.50;5040618;28;20032;-62
2022/05/15 10:41:39;;;;;;;1.83;0.70;;;;;;;19.89;30.28;98448.91;5050525;28;20389;-61
2022/05/15 10:44:28;;;;;;;1.17;0.73;;;;;;;20.04;30.90;98464.13;5050378;28;20037;-60
2022/05/15 10:47:07;;;;;;;0.95;0.57;;;;;;;20.31;30.17;98451.16;5037083;28;20033;-60
2022/05/15 10:50:00;;;;;;;1.55;0.70;;;;;;;20.56;29.43;98455.75;5047270;28;20032;-57
2022/05/15 10:53:03;;;;;;;2.05;0.80;;;;;;;20.59;29.46;98449.88;5030945;28;20049;-59
2022/05/15 10:58:32;;;;;;;2.10;0.52;;;;;;;19.68;29.93;98427.53;5050490;28;20037;-61
2022/05/15 11:01:20;;;;;;;;;;;;;;;20.06;29.34;98464.72;5051192;28;20041;-59
2022/05/15 11:04:02;;;;;;;1.20;0.52;;;;;;;19.44;29.87;98465.22;5028484;28;20249;-59
2022/05/15 11:06:36;;;;;;;2.78;0.80;;;;;;;18.82;31.02;98469.13;5050413;28;20040;-59
2022/05/15 11:09:18;;;;;;;1.58;0.55;;;;;;;18.61;31.35;98462.09;5050480;28;20112;-58
2022/05/15 11:12:09;;;;;;;1.50;0.70;;;;;;;18.33;31.78;98460.44;5050230;28;20032;-58
2022/05/15 11:14:41;;;;;;;2.30;0.70;;;;;;;18.13;32.41;98454.97;5039123;28;20126;-61
2022/05/15 11:17:06;;;;;;;1.00;0.70;;;;;;;18.11;32.90;98455.19;5054520;28;20091;-61
2022/05/15 11:19:37;;;;;;;1.55;0.77;;;;;;;18.35;32.26;98463.75;5044756;28;20482;-58
2022/05/15 11:22:10;;;;;;;4.78;1.00;;;;;;;18.66;32.61;98454.16;5034892;28;20120;-58
2022/05/15 11:25:15;;;;;;;2.17;0.77;;;;;;;19.17;31.12;98449.06;5034215;28;20049;-56
2022/05/15 11:27:46;;;;;;;1.08;0.70;;;;;;;19.40;31.19;98447.72;5006120;28;20037;-59
2022/05/15 11:30:22;;;;;;;1.88;0.80;;;;;;;19.75;31.26;98439.19;5054127;28;20135;-58
2022/05/15 11:32:51;;;;;;;3.83;1.00;;;;;;;19.94;29.43;98449.13;5047016;28;20065;-60
2022/05/15 11:35:17;;;;;;;1.98;0.90;;;;;;;20.04;29.93;98436.94;5034149;28;20052;-59
2022/05/15 11:37:56;;;;;;;1.65;1.00;;;;;;;20.21;29.76;98438.06;5033759;28;20037;-60
2022/05/15 11:40:46;;;;;;;2.75;0.90;;;;;;;20.27;28.50;98443.69;5039940;28;20115;-55
2022/05/15 11:43:30;;;;;;;1.08;0.60;;;;;;;20.14;28.11;98437.28;5053820;28;20029;-59
2022/05/15 11:46:02;;;;;;;2.28;0.93;;;;;;;19.65;29.34;98435.06;5053733;28;20062;-60
2022/05/15 11:48:49;;;;;;;1.48;0.95;;;;;;;19.60;29.07;98431.31;5016106;28;20041;-61
2022/05/15 11:51:15;;;;;;;2.05;0.90;;;;;;;19.58;29.81;98433.44;5033873;28;20029;-59
2022/05/15 11:53:50;;;;;;;1.88;0.82;;;;;;;19.71;28.82;98432.53;5034200;28;20050;-59
2022/05/15 11:56:51;;;;;;;1.02;0.80;;;;;;;19.54;28.95;98424.06;5053906;28;20484;-61
2022/05/15 11:59:16;;;;;;;2.28;0.80;;;;;;;19.11;28.99;98415.47;5020668;28;20540;-59
2022/05/15 12:01:46;;;;;;;2.30;0.88;;;;;;;18.95;29.44;98419.47;5033840;28;20041;-59
2022/05/15 12:04:18;;;;;;;1.58;0.80;;;;;;;18.80;30.00;98422.41;5015870;28;20040;-60
2022/05/15 12:07:09;;;;;;;3.92;0.73;;;;;;;18.83;29.91;98415.75;5033560;28;20497;-60